Latest Weather Observations for Munglinup West

IDW60801

Issued at 10:33 am WST Wednesday 17 January 2018 (issued every 30 minutes, with the page automatically refreshed every 10 minutes)

About weather observations | Map of weather stations | Latest weather observations for WA | Other Formats
Station Details ID: 012044 Name: MUNGLINUP WEST Lat: -33.55 Lon: 120.70 Height: 220.0 m
Data from the previous 72 hours. | See also: Recent months at Munglinup West
Date/Time
WST
Temp
°C
App
Temp
°C
Dew
Point
°C
Rel
Hum
%
Delta-T
°C
Wind Press
QNH
hPa
Press
MSL
hPa
Rain since
9am
mm
Dir  Spd
km/h
Gust
km/h
Spd
kts
Gust
kts
17/10:30am 36.2 38.4 26.6 57 7.0 NNW 28 44 15 24 1004.6 1003.7 0.0
17/10:00am 35.4 36.9 26.2 59 6.7 NNW 30 43 16 23 1005.2 1004.3 0.0
17/09:30am 33.3 33.5 24.7 60 6.1 N 32 48 17 26 1005.7 1004.7 0.0
17/09:19am 34.3 35.7 25.4 60 6.4 NNW 28 48 15 26 1005.7 1004.7 0.0
17/09:00am 34.1 35.4 25.8 62 6.0 NNW 30 43 16 23 1005.9 1004.9 0.2
17/08:30am 32.8 34.5 25.3 64 5.4 N 26 37 14 20 1006.1 1005.1 0.2
17/08:00am 31.9 33.9 25.2 67 4.8 N 24 37 13 20 1006.4 1005.5 0.2
17/07:30am 30.5 32.4 24.4 70 4.3 N 22 35 12 19 1006.5 1005.6 0.2
17/07:00am 28.6 29.7 23.7 75 3.4 N 24 35 13 19 1006.7 1005.8 0.2
17/06:30am 26.7 28.4 23.0 80 2.5 NNE 19 26 10 14 1006.6 1005.7 0.2
17/06:00am 25.1 26.1 22.2 84 2.0 NNE 20 30 11 16 1006.5 1005.6 0.2
17/05:30am 23.8 25.0 21.5 87 1.5 NNE 17 24 9 13 1006.3 1005.4 0.2
17/05:00am 24.1 25.0 21.6 86 1.7 NNE 19 28 10 15 1006.1 1005.1 0.2
17/04:30am 24.2 25.0 21.3 84 1.9 NNE 19 26 10 14 1006.1 1005.1 0.2
17/04:00am 24.7 25.5 21.4 82 2.2 NNE 19 24 10 13 1006.0 1005.0 0.2
17/03:30am 24.9 25.7 21.4 81 2.3 NNE 19 24 10 13 1005.9 1004.9 0.2
17/03:00am 25.0 25.6 21.1 79 2.6 NNE 19 24 10 13 1006.0 1005.0 0.2
17/02:30am 25.3 26.3 21.0 77 2.9 NNE 17 20 9 11 1006.1 1005.1 0.2
17/02:00am 25.3 25.6 20.5 75 3.2 NNE 19 24 10 13 1006.0 1005.0 0.2
17/01:30am 25.5 26.6 20.5 74 3.3 NNE 15 19 8 10 1006.0 1005.0 0.2
17/01:00am 25.5 26.6 20.5 74 3.3 NNE 15 17 8 9 1006.2 1005.2 0.2
17/12:30am 25.4 26.8 20.4 74 3.3 NNE 13 17 7 9 1006.6 1005.7 0.2
17/12:00am 24.8 26.9 20.1 75 3.1 NNE 9 11 5 6 1006.9 1006.0 0.2
 
Date/Time
WST
Temp
°C
App
Temp
°C
Dew
Point
°C
Rel
Hum
%
Delta-T
°C
Wind Press
QNH
hPa
Press
MSL
hPa
Rain since
9am
mm
Dir  Spd
km/h
Gust
km/h
Spd
kts
Gust
kts
16/11:30pm 24.9 26.9 19.9 74 3.3 NNE 9 11 5 6 1007.2 1006.3 0.2
16/11:00pm 25.1 27.2 20.1 74 3.3 N 9 11 5 6 1007.6 1006.7 0.2
16/10:30pm 26.4 28.3 20.5 70 3.9 N 11 15 6 8 1007.6 1006.7 0.2
16/10:00pm 26.8 27.2 20.6 69 4.1 NE 19 26 10 14 1007.2 1006.3 0.2
16/09:30pm 27.5 27.8 20.8 67 4.5 NE 20 30 11 16 1007.6 1006.7 0.2
16/09:00pm 28.0 28.5 20.8 65 4.8 NE 19 26 10 14 1007.9 1007.0 0.2
16/08:30pm 28.3 28.8 20.8 63 5.0 NE 19 26 10 14 1007.9 1007.0 0.2
16/08:00pm 29.1 29.6 21.1 62 5.4 NE 20 26 11 14 1007.9 1007.0 0.2
16/07:30pm 29.9 30.2 21.6 61 5.6 NE 22 30 12 16 1007.7 1006.8 0.2
16/07:00pm 30.9 31.4 21.9 58 6.1 ENE 22 30 12 16 1007.2 1006.3 0.2
16/06:30pm 32.6 34.2 23.3 58 6.5 NE 20 28 11 15 1007.1 1006.2 0.2
16/06:00pm 32.4 33.5 23.1 58 6.5 ENE 22 32 12 17 1006.8 1005.9 0.2
16/05:30pm 32.1 32.9 23.1 59 6.2 ENE 24 33 13 18 1006.9 1006.0 0.2
16/05:00pm 32.1 32.1 23.1 59 6.3 ENE 28 35 15 19 1007.2 1006.3 0.2
16/04:30pm 32.4 33.7 23.4 59 6.3 ENE 22 32 12 17 1007.6 1006.7 0.2
16/04:00pm 32.0 33.3 23.3 60 6.1 NE 22 33 12 18 1008.1 1007.2 0.2
16/03:30pm 30.9 31.5 22.8 62 5.6 NE 24 35 13 19 1008.7 1007.8 0.2
16/03:00pm 30.4 30.6 22.8 64 5.2 NE 26 35 14 19 1009.2 1008.3 0.2
16/02:30pm 29.6 29.9 22.3 65 5.0 NE 24 35 13 19 1009.6 1008.7 0.2
16/02:00pm 29.2 29.5 22.2 66 4.8 NE 24 37 13 20 1010.3 1009.4 0.2
16/01:30pm 30.0 29.9 22.2 63 5.3 NNE 26 39 14 21 1010.9 1010.0 0.2
16/01:00pm 29.5 29.7 22.0 64 5.1 NE 24 33 13 18 1011.2 1010.3 0.2
16/12:30pm 28.7 29.4 22.2 68 4.4 NE 22 33 12 18 1011.9 1011.0 0.2
16/12:00pm 28.9 29.7 22.4 68 4.4 NE 22 35 12 19 1012.4 1011.5 0.2
16/11:30am 27.0 28.1 22.0 74 3.4 NE 19 30 10 16 1013.3 1012.4 0.2
16/11:00am 25.3 27.1 21.8 81 2.3 NE 15 22 8 12 1013.8 1012.9 0.2
16/10:30am 23.9 26.4 21.8 88 1.4 NNE 11 17 6 9 1014.0 1013.1 0.2
16/10:00am 22.7 23.8 21.3 92 0.9 NE 17 28 9 15 1013.9 1013.0 0.2
16/09:30am 21.2 21.6 21.0 99 0.1 NE 20 28 11 15 1014.1 1013.2 0.0
16/09:00am 20.8 21.7 20.8 100 0.0 NE 17 24 9 13 1014.3 1013.5 0.0
16/08:30am 21.3 21.5 20.5 95 0.5 NE 20 30 11 16 1014.3 1013.5 0.0
16/08:00am 20.5 19.6 19.8 96 0.4 NE 24 35 13 19 1014.3 1013.5 0.0
16/07:30am 19.9 18.9 19.7 99 0.1 NE 24 37 13 20 1014.2 1013.4 0.0
16/07:00am 19.5 17.7 19.5 100 0.0 NE 28 41 15 22 1014.4 1013.6 0.0
16/06:30am 19.0 18.1 19.0 100 0.0 NE 22 32 12 17 1014.5 1013.7 0.0
16/06:00am 18.6 17.5 18.6 100 0.0 ENE 22 33 12 18 1014.6 1013.8 0.0
16/05:30am 18.4 17.8 18.4 100 0.0 ENE 19 26 10 14 1014.5 1013.7 0.0
16/05:00am 18.1 18.1 18.1 100 0.0 ENE 15 20 8 11 1014.5 1013.7 0.0
16/04:30am 18.0 17.6 18.0 100 0.0 NE 17 26 9 14 1014.7 1013.9 0.0
16/04:00am 18.3 18.4 18.3 100 0.0 NE 15 20 8 11 1014.8 1014.0 0.0
16/03:30am 18.3 17.4 18.3 100 0.0 ENE 20 28 11 15 1014.6 1013.8 0.0
16/03:00am 18.4 17.6 18.4 100 0.0 ENE 20 28 11 15 1014.5 1013.7 0.0
16/02:30am 18.5 17.9 18.5 100 0.0 ENE 19 26 10 14 1014.7 1013.9 0.0
16/02:00am 18.6 18.4 18.6 100 0.0 ENE 17 22 9 12 1015.1 1014.2 0.0
16/01:30am 18.6 18.4 18.6 100 0.0 ENE 17 22 9 12 1015.4 1014.5 0.0
16/01:00am 18.8 18.4 18.8 100 0.0 ENE 19 26 10 14 1015.7 1014.8 0.0
16/12:30am 19.0 18.4 18.8 99 0.1 ENE 20 28 11 15 1015.9 1015.0 0.0
16/12:00am 19.1 19.0 18.8 98 0.2 ENE 17 24 9 13 1016.2 1015.3 0.0
 
Date/Time
WST
Temp
°C
App
Temp
°C
Dew
Point
°C
Rel
Hum
%
Delta-T
°C
Wind Press
QNH
hPa
Press
MSL
hPa
Rain since
9am
mm
Dir  Spd
km/h
Gust
km/h
Spd
kts
Gust
kts
15/11:30pm 19.2 18.7 18.7 97 0.3 ENE 19 28 10 15 1016.3 1015.4 0.0
15/11:00pm 19.4 19.0 18.9 97 0.3 ENE 19 30 10 16 1016.4 1015.5 0.0
15/10:30pm 19.6 18.6 18.8 95 0.5 ENE 22 30 12 16 1016.3 1015.4 0.0
15/10:00pm 19.7 18.5 18.5 93 0.8 E 22 32 12 17 1016.3 1015.4 0.0
15/09:30pm 19.7 19.0 18.7 94 0.6 E 20 35 11 19 1016.3 1015.4 0.0
15/09:00pm 19.6 19.0 18.9 96 0.4 E 20 30 11 16 1016.4 1015.5 0.0
15/08:30pm 19.6 19.1 19.1 97 0.3 E 20 28 11 15 1016.6 1015.7 0.0
15/08:00pm 19.6 19.8 19.3 98 0.2 E 17 22 9 12 1016.9 1016.0 0.0
15/07:30pm 19.7 19.5 19.4 98 0.2 ESE 19 24 10 13 1016.7 1015.8 0.0
15/07:00pm 20.0 19.4 19.7 98 0.2 ESE 22 32 12 17 1016.7 1015.8 0.0
15/06:30pm 20.3 19.8 20.0 98 0.2 ESE 22 30 12 16 1017.0 1016.1 0.0
15/06:00pm 21.0 21.3 20.5 97 0.3 ESE 19 28 10 15 1017.2 1016.3 0.0
15/05:30pm 21.8 22.6 20.6 93 0.8 ESE 17 24 9 13 1017.0 1016.1 0.0
15/05:00pm 22.9 22.6 19.1 79 2.4 ESE 19 24 10 13 1016.7 1015.8 0.0
15/04:30pm 23.1 24.0 19.3 79 2.4 E 13 19 7 10 1017.1 1016.2 0.0
15/04:00pm 23.1 24.1 19.5 80 2.3 ENE 13 19 7 10 1017.4 1016.5 0.0
15/03:30pm 23.2 23.9 19.6 80 2.3 ENE 15 22 8 12 1017.5 1016.6 0.0
15/03:00pm 23.4 23.7 19.5 79 2.5 ENE 17 24 9 13 1018.0 1017.1 0.0
15/02:30pm 23.8 24.6 19.9 79 2.5 ENE 15 20 8 11 1018.1 1017.2 0.0
15/02:00pm 23.7 23.7 19.8 79 2.5 ENE 19 28 10 15 1018.3 1017.5 0.0
15/01:30pm 23.5 23.8 19.6 79 2.5 E 17 26 9 14 1018.5 1017.7 0.0
15/01:00pm 23.6 24.2 19.5 78 2.6 ENE 15 22 8 12 1018.7 1017.9 0.0
15/12:30pm 23.1 23.4 19.5 80 2.3 ENE 17 22 9 12 1019.0 1018.2 0.0
15/12:00pm 23.4 23.7 19.5 79 2.5 ENE 17 24 9 13 1019.4 1018.6 0.0
15/11:30am 22.6 22.4 19.4 82 2.1 NE 19 26 10 14 1019.8 1018.9 0.0
15/11:00am 22.7 22.6 19.5 82 2.1 NE 19 28 10 15 1020.3 1019.4 0.0
15/10:30am 22.3 22.2 19.5 84 1.8 NE 19 28 10 15 1020.4 1019.5 0.0
15/10:00am 22.1 21.7 19.3 84 1.8 ENE 20 28 11 15 1020.5 1019.6 0.0
15/09:30am 21.4 21.0 19.3 88 1.3 ENE 20 28 11 15 1020.5 1019.6 0.0
15/09:00am 20.6 19.7 19.1 91 1.0 ENE 22 32 12 17 1020.4 1019.5 0.0
15/08:30am 20.3 19.8 19.0 92 0.8 NE 20 30 11 16 1020.3 1019.4 0.0
15/08:00am 19.7 18.8 19.0 96 0.4 ENE 22 30 12 16 1020.4 1019.5 0.0
15/07:30am 18.6 17.8 18.4 99 0.1 ENE 20 28 11 15 1020.5 1019.6 0.0
15/07:00am 18.2 16.9 18.2 100 0.0 ENE 22 33 12 18 1019.9 1019.0 0.0
15/06:30am 17.9 16.1 17.9 100 0.0 ENE 24 33 13 18 1019.6 1018.8 0.0
15/06:00am 17.7 16.6 17.7 100 0.0 ENE 20 30 11 16 1019.6 1018.8 0.0
15/05:30am 17.5 16.5 17.5 100 0.0 ENE 19 28 10 15 1019.2 1018.4 0.0
15/05:00am 17.6 17.0 17.6 100 0.0 ENE 17 24 9 13 1019.2 1018.4 0.0
15/04:30am 17.6 18.2 17.6 100 0.0 E 11 19 6 10 1019.1 1018.3 0.0
15/04:00am 17.9 17.4 17.9 100 0.0 E 17 26 9 14 1018.9 1018.1 0.0
15/03:30am 18.1 16.8 18.1 100 0.0 ENE 22 32 12 17 1018.4 1017.6 0.0
15/03:00am 18.3 16.7 18.3 100 0.0 ENE 24 33 13 18 1018.1 1017.2 0.0
15/02:30am 18.2 16.9 18.2 100 0.0 ENE 22 32 12 17 1018.1 1017.2 0.0
15/02:00am 18.4 17.2 18.4 100 0.0 E 22 32 12 17 1018.3 1017.5 0.0
15/01:30am 18.7 17.5 18.5 99 0.1 E 22 28 12 15 1018.4 1017.6 0.0
15/01:00am 19.0 18.4 18.5 97 0.3 E 19 26 10 14 1018.8 1018.0 0.0
15/12:30am 19.4 19.2 18.4 94 0.6 E 17 24 9 13 1018.8 1018.0 0.0
15/12:00am 19.7 19.0 18.7 94 0.6 E 20 28 11 15 1018.6 1017.8 0.0
 
Date/Time
WST
Temp
°C
App
Temp
°C
Dew
Point
°C
Rel
Hum
%
Delta-T
°C
Wind Press
QNH
hPa
Press
MSL
hPa
Rain since
9am
mm
Dir  Spd
km/h
Gust
km/h
Spd
kts
Gust
kts
14/11:30pm 19.4 18.2 19.2 99 0.1 E 24 32 13 17 1018.2 1017.4 0.0
14/11:00pm 19.3 17.7 19.3 100 0.0 E 26 39 14 21 1018.2 1017.4 0.0
14/10:30pm 19.4 17.5 19.4 100 0.0 E 28 37 15 20 1018.6 1017.8 0.0
14/10:00pm 19.6 17.4 19.6 100 0.0 E 30 39 16 21 1018.8 1018.0 0.0
14/09:30pm 19.8 18.1 19.8 100 0.0 E 28 41 15 22 1019.1 1018.3 0.0
14/09:00pm 19.6 17.8 19.6 100 0.0 ESE 28 35 15 19 1019.0 1018.2 0.0
14/08:30pm 19.5 18.0 19.5 100 0.0 ESE 26 37 14 20 1019.1 1018.3 0.0
14/08:00pm 19.4 17.9 19.4 100 0.0 ESE 26 37 14 20 1019.2 1018.4 0.0
14/07:30pm 19.7 18.7 19.7 100 0.0 ESE 24 33 13 18 1019.1 1018.3 0.0
14/07:00pm 20.5 18.8 20.5 100 0.0 SE 30 43 16 23 1018.6 1017.8 0.0
14/06:30pm 21.3 18.8 20.1 93 0.8 SE 33 50 18 27 1018.2 1017.4 0.0
14/06:29pm 21.4 19.1 20.2 93 0.8 SE 32 50 17 27 1018.2 1017.4 0.0
14/06:00pm 22.4 20.2 20.3 88 1.4 SE 32 46 17 25 1018.1 1017.2 0.0
14/05:30pm 23.7 21.9 21.2 86 1.7 SE 32 44 17 24 1017.9 1017.0 0.0
14/05:00pm 24.7 23.5 22.2 86 1.7 SE 32 43 17 23 1017.8 1016.9 0.0
14/04:30pm 25.7 24.7 22.0 80 2.5 SE 30 43 16 23 1017.8 1016.9 0.0
14/04:00pm 28.7 27.5 22.7 70 4.1 SE 33 48 18 26 1017.7 1016.8 0.0
14/03:30pm 29.6 28.3 23.1 68 4.5 SE 35 48 19 26 1017.5 1016.6 0.0
14/03:00pm 30.9 30.0 23.8 66 5.0 SE 35 46 19 25 1017.3 1016.4 0.0
14/02:30pm 31.8 31.8 24.4 65 5.2 SE 32 44 17 24 1017.6 1016.7 0.0
14/02:00pm 31.7 31.7 23.8 63 5.5 SE 30 39 16 21 1017.6 1016.7 0.0
14/01:30pm 32.9 32.9 24.4 61 6.0 SE 32 44 17 24 1017.7 1016.8 0.0
14/01:00pm 33.2 33.4 21.4 50 8.0 ENE 22 37 12 20 1018.0 1017.1 0.0
14/12:30pm 32.6 32.8 20.5 49 8.1 ENE 20 33 11 18 1018.2 1017.4 0.0
14/12:00pm 33.4 34.1 21.2 48 8.3 ENE 19 39 10 21 1018.4 1017.6 0.0
14/11:30am 32.3 32.7 20.9 51 7.7 E 20 37 11 20 1018.8 1018.0 0.0
14/11:00am 31.4 30.8 20.4 52 7.3 ENE 24 35 13 19 1019.1 1018.3 0.0

Other Formats:

Comma delimited format used in spreadsheet applications
http://www.bom.gov.au/fwo/IDW60801/IDW60801.95644.axf

JavaScript Object Notation format (JSON) in row-major order
http://www.bom.gov.au/fwo/IDW60801/IDW60801.95644.json